Dunlap Lake, Illinois
Current Conditions -  °F | °C
As of 2:15 AM on Thursday 27 Nov 2014 (Local Time) from KALN Reporting Station
Overcast Overcast  
Wind Chill: 24°   Ceiling: 1000
Heat Index: 30°   Visibility: 7mi
Dew Point: 27°   Wind: 6mph
Humidity: 90%   Direction: 330°NNW
Pressure: 30.31"   Gusts: NA
Location:  38.8031°N, 89.9742°W
Report Text: KALN 270815Z AUTO 33005KT 7SM OVC010 M01/M03 A3031 RMK AO2 T10131027
Loading
Personal Weather Stations






























Interactive Weather Map New forecast layout! Learn more

10-Day Weather Forecast

Advertisements
Track Severe Weather on mobile